Fure West — OZ2100 — position and weather

sailwx.info

Track history (hours):
 
Tides and Currents Weather Stations Pressure Air Temp Water Temp Dewpoint Dewpoint Depression Visibility Wind Speed Wind Dir Waves Ship Positions

Fure West

Last reported at 2017-Nov-19 16:28 UTC. Time now 2017-Nov-20 14:02 UTC.
Position N 52°41' E 004°12'.

Length 144 m; draft 6.5 m.

MMSI: 231775000.

Date/timePositionNaut miles runAvg speedWind from/ knotsBaromVisibWave heightAir tempDewpointWater temp
2017-Nov-19 16:28N 52°41' E 004°12'510.6
2017-Nov-19 16:00N 52°37' E 004°18'611.2
2017-Nov-19 15:30N 52°33' E 004°23'510.5
2017-Nov-19 15:00N 52°29' E 004°29'4 7.7
2017-Nov-19 14:31N 52°28' E 004°35'1 1.4
2017-Nov-19 14:00N 52°28' E 004°36'0 0.2
2017-Nov-19 13:30N 52°28' E 004°37'3 5.0
2017-Nov-19 13:00N 52°27' E 004°41'3 6.9
2017-Nov-19 12:30N 52°25' E 004°45'0 0.0
2017-Nov-18 12:35N 52°25' E 004°45'0 1.8
2017-Nov-18 12:30N 52°25' E 004°45'2 4.1
2017-Nov-18 12:00N 52°26' E 004°42'4 7.8
2017-Nov-18 11:30N 52°28' E 004°37'0 0.3
2017-Nov-18 11:00N 52°28' E 004°36'1 1.7
2017-Nov-18 10:30N 52°28' E 004°35'1 2.1
2017-Nov-18 10:00N 52°28' E 004°33'4 7.6
2017-Nov-18 09:30N 52°28' E 004°27'3 6.7
2017-Nov-18 09:01N 52°28' E 004°22'612.5
2017-Nov-18 08:30N 52°29' E 004°11'611.5
2017-Nov-18 07:57N 52°27' E 004°01'1 1.2
2017-Nov-18 07:25N 52°27' E 004°01'0 0.1
2017-Nov-18 06:46N 52°27' E 004°01'0 0.0
2017-Nov-18 06:28N 52°27' E 004°01'0 0.1
2017-Nov-18 05:16N 52°27' E 004°01'0 0.1
2017-Nov-18 04:58N 52°27' E 004°01'0 0.1
2017-Nov-18 04:16N 52°27' E 004°01'0 0.1
2017-Nov-18 03:16N 52°27' E 004°01'0 0.0
2017-Nov-18 02:34N 52°27' E 004°01'0 0.0
2017-Nov-18 02:28N 52°27' E 004°01'0 0.0
2017-Nov-18 01:49N 52°27' E 004°01'0 0.1
2017-Nov-18 01:19N 52°27' E 004°01'0 0.1
2017-Nov-18 00:55N 52°27' E 004°01'0 0.1
2017-Nov-18 00:28N 52°27' E 004°01'0 0.1
2017-Nov-17 23:49N 52°27' E 004°01'0 0.1
2017-Nov-17 23:19N 52°27' E 004°01'0 0.1
2017-Nov-17 22:43N 52°27' E 004°01'0 0.0
2017-Nov-17 22:04N 52°27' E 004°01'0 0.1
2017-Nov-17 21:49N 52°27' E 004°01'0 0.0
2017-Nov-17 21:28N 52°27' E 004°01'0 0.0
2017-Nov-17 20:43N 52°27' E 004°01'0 0.0
2017-Nov-17 20:25N 52°27' E 004°01'0 0.0
2017-Nov-17 19:55N 52°27' E 004°01'0 0.0
2017-Nov-17 19:28N 52°27' E 004°01'0 0.1
2017-Nov-17 18:58N 52°27' E 004°01'0 0.1
2017-Nov-17 18:28N 52°27' E 004°01'0 0.1
2017-Nov-17 17:55N 52°27' E 004°01'0 0.0
2017-Nov-17 17:28N 52°27' E 004°01'0 0.0
2017-Nov-17 12:10N 52°27' E 004°01'0 0.1
2017-Nov-17 11:55N 52°27' E 004°01'0 0.1
2017-Nov-17 11:19N 52°27' E 004°01'0 0.1
2017-Nov-17 10:43N 52°27' E 004°01'0 0.0
2017-Nov-17 10:28N 52°27' E 004°01'0 0.0
2017-Nov-17 09:55N 52°27' E 004°01'0 0.0
2017-Nov-17 09:28N 52°27' E 004°01'0 0.0
2017-Nov-17 08:58N 52°27' E 004°01'0 0.0
2017-Nov-17 08:19N 52°27' E 004°01'0 0.0
2017-Nov-17 07:49N 52°27' E 004°01'0 0.0
2017-Nov-17 06:37N 52°27' E 004°01'0 0.1
2017-Nov-17 06:19N 52°27' E 004°01'0 0.1
2017-Nov-17 05:49N 52°27' E 004°01'0 0.1
2017-Nov-17 05:25N 52°27' E 004°01'0 0.1
2017-Nov-17 03:19N 52°27' E 004°01'0 0.1
2017-Nov-17 02:40N 52°27' E 004°01'34510.1
2017-Nov-15 16:35N 57°26' E 008°58'111.2
2017-Nov-15 16:29N 57°27' E 008°60'611.2
2017-Nov-15 15:59N 57°31' E 009°08'511.5
2017-Nov-15 15:30N 57°34' E 009°16'4311.4
2017-Nov-15 11:44N 57°49' E 010°30'311.1
2017-Nov-15 11:28N 57°49' E 010°36'510.9
2017-Nov-15 11:00N 57°49' E 010°46'611.1
2017-Nov-15 10:29N 57°47' E 010°55'611.3
2017-Nov-15 09:57N 57°44' E 011°05'511.5
2017-Nov-15 09:30N 57°42' E 011°14'611.6
2017-Nov-15 09:00N 57°39' E 011°24'611.7
2017-Nov-15 08:30N 57°37' E 011°34'4 8.0
2017-Nov-15 08:01N 57°38' E 011°41'5 9.3
2017-Nov-15 07:30N 57°41' E 011°48'3 4.7
2017-Nov-15 06:58N 57°41' E 011°52'0 0.0
2017-Nov-15 06:28N 57°41' E 011°52'0 0.0
2017-Nov-15 05:58N 57°41' E 011°52'0 0.0
2017-Nov-15 05:25N 57°41' E 011°52'0 0.0
2017-Nov-15 04:58N 57°41' E 011°52'0 0.0
2017-Nov-15 04:28N 57°41' E 011°52'0 0.0
2017-Nov-15 03:58N 57°41' E 011°52'0 0.0
2017-Nov-15 03:28N 57°41' E 011°52'0 0.0
2017-Nov-15 02:58N 57°41' E 011°52'0 0.0
2017-Nov-15 02:28N 57°41' E 011°52'0 0.0
2017-Nov-15 01:55N 57°41' E 011°52'0 0.0
2017-Nov-15 01:28N 57°41' E 011°52'0 0.0
2017-Nov-15 00:58N 57°41' E 011°52'0 0.0
2017-Nov-15 00:28N 57°41' E 011°52'0 0.0
2017-Nov-14 23:55N 57°41' E 011°52'0 0.0
2017-Nov-14 23:28N 57°41' E 011°52'0 0.0
2017-Nov-14 22:58N 57°41' E 011°52'0 0.0
2017-Nov-14 22:28N 57°41' E 011°52'0 0.0
2017-Nov-14 21:58N 57°41' E 011°52'0 0.0
2017-Nov-14 21:28N 57°41' E 011°52'0 0.0
2017-Nov-14 20:58N 57°41' E 011°52'0 0.0
2017-Nov-14 20:28N 57°41' E 011°52'0 0.0
2017-Nov-14 19:55N 57°41' E 011°52'0 0.0
2017-Nov-14 19:25N 57°41' E 011°52'0 0.0
2017-Nov-14 18:55N 57°41' E 011°52'0 0.0
2017-Nov-14 18:28N 57°41' E 011°52'0 0.0
2017-Nov-14 17:55N 57°41' E 011°52'0 0.0
2017-Nov-14 17:28N 57°41' E 011°52'0 0.0
2017-Nov-14 16:55N 57°41' E 011°52'0 0.0
2017-Nov-14 16:28N 57°41' E 011°52'0 0.0
2017-Nov-14 15:49N 57°41' E 011°52'0 0.0
2017-Nov-14 15:28N 57°41' E 011°52'0 0.0
2017-Nov-14 14:55N 57°41' E 011°52'0 0.0
2017-Nov-14 14:28N 57°41' E 011°52'0 0.0
2017-Nov-14 13:55N 57°41' E 011°52'0 0.0
2017-Nov-14 13:25N 57°41' E 011°52'0 0.0
2017-Nov-14 12:58N 57°41' E 011°52'0 0.0
2017-Nov-14 12:25N 57°41' E 011°52'0 0.0
2017-Nov-14 11:55N 57°41' E 011°52'0 0.0
2017-Nov-14 11:28N 57°41' E 011°52'0 0.0
2017-Nov-14 10:55N 57°41' E 011°52'0 0.0
2017-Nov-14 10:28N 57°41' E 011°52'0 0.0
2017-Nov-14 09:58N 57°41' E 011°52'0 0.0
2017-Nov-14 09:28N 57°41' E 011°52'0 0.0
2017-Nov-14 08:58N 57°41' E 011°52'0 0.0
2017-Nov-14 08:25N 57°41' E 011°52'0 0.0
2017-Nov-14 07:58N 57°41' E 011°52'0 0.0
2017-Nov-14 07:28N 57°41' E 011°52'0 0.0
2017-Nov-14 06:58N 57°41' E 011°52'0 0.0
2017-Nov-14 06:25N 57°41' E 011°52'0 0.0
2017-Nov-14 05:58N 57°41' E 011°52'0 0.0
2017-Nov-14 05:25N 57°41' E 011°52'0 0.0
2017-Nov-14 04:58N 57°41' E 011°52'0 0.0
2017-Nov-14 04:28N 57°41' E 011°52'0 0.0
2017-Nov-14 03:58N 57°41' E 011°52'0 0.0
2017-Nov-14 03:28N 57°41' E 011°52'0 0.0
2017-Nov-14 02:58N 57°41' E 011°52'0 0.0
2017-Nov-14 02:28N 57°41' E 011°52'0 0.0
2017-Nov-14 01:58N 57°41' E 011°52'0 0.0
2017-Nov-14 01:25N 57°41' E 011°52'0 0.0
2017-Nov-14 00:58N 57°41' E 011°52'0 0.0
2017-Nov-14 00:28N 57°41' E 011°52'0 0.0
2017-Nov-13 23:58N 57°41' E 011°52'0 0.0
2017-Nov-13 23:28N 57°41' E 011°52'0 0.0
2017-Nov-13 22:58N 57°41' E 011°52'0 0.0
2017-Nov-13 22:25N 57°41' E 011°52'0 0.0
2017-Nov-13 21:58N 57°41' E 011°52'10 0.5
2017-Nov-13 02:00N 57°34' E 011°41'0 0.0
2017-Nov-13 01:30N 57°34' E 011°41'0 0.0
2017-Nov-13 01:00N 57°34' E 011°41'0 0.0
2017-Nov-13 00:30N 57°34' E 011°41'0 0.0
2017-Nov-13 00:00N 57°34' E 011°41'0 0.0
2017-Nov-12 23:30N 57°34' E 011°41'0 0.0
2017-Nov-12 23:00N 57°34' E 011°41'0 0.0
2017-Nov-12 22:27N 57°34' E 011°41'0 0.0
2017-Nov-12 22:00N 57°34' E 011°41'0 0.0
2017-Nov-12 21:30N 57°34' E 011°41'0 0.1
2017-Nov-12 21:00N 57°34' E 011°41'0 0.0
2017-Nov-12 20:24N 57°34' E 011°41'0 0.0
2017-Nov-12 20:00N 57°34' E 011°41'0 0.0
2017-Nov-12 19:30N 57°34' E 011°41'0 0.1
2017-Nov-12 19:00N 57°34' E 011°41'0 0.0
2017-Nov-12 18:30N 57°34' E 011°41'0 0.1
2017-Nov-12 18:00N 57°34' E 011°41'0 0.0
2017-Nov-12 17:30N 57°34' E 011°41'0 0.1
2017-Nov-12 17:00N 57°34' E 011°41'0 0.0
2017-Nov-12 16:30N 57°34' E 011°41'0 0.0
2017-Nov-12 16:00N 57°34' E 011°41'0 0.0
2017-Nov-12 15:30N 57°34' E 011°41'0 0.0
2017-Nov-12 15:00N 57°34' E 011°41'0 0.0
2017-Nov-12 14:30N 57°34' E 011°41'0 0.1
2017-Nov-12 14:00N 57°34' E 011°41'3 5.9
2017-Nov-12 13:30N 57°36' E 011°37'4 8.1
2017-Nov-12 13:00N 57°38' E 011°30'815.2
2017-Nov-12 12:30N 57°40' E 011°17'714.9
2017-Nov-12 12:00N 57°43' E 011°04'714.8
2017-Nov-12 11:30N 57°46' E 010°51'22212.0
2017-Nov-11 17:00N 55°16' E 005°55'711.2
2017-Nov-11 16:24N 55°10' E 005°52'410.7
2017-Nov-11 15:59N 55°05' E 005°50'157 9.3
2017-Nov-10 23:12N 52°39' E 004°15'2 8.0
2017-Nov-10 23:00N 52°38' E 004°17'4 8.0
2017-Nov-10 22:29N 52°35' E 004°21'4 8.7
2017-Nov-10 22:00N 52°31' E 004°24'5 9.0
2017-Nov-10 21:30N 52°29' E 004°30'4 7.7
2017-Nov-10 21:00N 52°28' E 004°37'0 0.3
2017-Nov-10 20:30N 52°28' E 004°37'3 5.6
2017-Nov-10 20:00N 52°27' E 004°41'4 8.0
2017-Nov-10 19:30N 52°25' E 004°47'1 1.3
2017-Nov-10 18:56N 52°24' E 004°47'0 0.0
2017-Nov-10 18:17N 52°24' E 004°47'0 0.0
2017-Nov-10 17:56N 52°24' E 004°47'0 0.0
2017-Nov-10 17:02N 52°24' E 004°47'0 0.0
2017-Nov-10 16:32N 52°24' E 004°47'0 0.0
2017-Nov-10 14:44N 52°24' E 004°47'0 0.0
2017-Nov-10 14:20N 52°24' E 004°47'0 0.0
2017-Nov-10 04:50N 52°24' E 004°47'0 0.0
2017-Nov-10 04:17N 52°24' E 004°47'0 0.0
2017-Nov-10 03:56N 52°24' E 004°47'0 0.0
2017-Nov-10 03:14N 52°24' E 004°47'0 0.0
2017-Nov-10 02:56N 52°24' E 004°47'0 0.2
2017-Nov-10 02:30N 52°24' E 004°47'1 2.9
2017-Nov-10 02:00N 52°26' E 004°47'3 5.0
2017-Nov-10 01:30N 52°25' E 004°50'0 0.0
2017-Nov-09 23:49N 52°25' E 004°50'0 0.0
2017-Nov-09 23:10N 52°25' E 004°50'0 0.0
2017-Nov-09 22:52N 52°25' E 004°50'0 0.0
2017-Nov-09 21:10N 52°25' E 004°50'  
Track history (hours):
 
Tides and Currents Weather Stations Pressure Air Temp Water Temp Dewpoint Dewpoint Depression Visibility Wind Speed Wind Dir Waves Ship Positions

Fure West

Last reported at 2017-Nov-19 16:28 UTC. Time now 2017-Nov-20 14:02 UTC.
Position N 52°41' E 004°12'.

Length 144 m; draft 6.5 m.

MMSI: 231775000.

Date/timePositionNaut miles runAvg speedWind from/ knotsBaromVisibWave heightAir tempDewpointWater temp
2017-Nov-19 16:28N 52°41' E 004°12'510.6
2017-Nov-19 16:00N 52°37' E 004°18'611.2
2017-Nov-19 15:30N 52°33' E 004°23'510.5
2017-Nov-19 15:00N 52°29' E 004°29'4 7.7
2017-Nov-19 14:31N 52°28' E 004°35'1 1.4
2017-Nov-19 14:00N 52°28' E 004°36'0 0.2
2017-Nov-19 13:30N 52°28' E 004°37'3 5.0
2017-Nov-19 13:00N 52°27' E 004°41'3 6.9
2017-Nov-19 12:30N 52°25' E 004°45'0 0.0
2017-Nov-18 12:35N 52°25' E 004°45'0 1.8
2017-Nov-18 12:30N 52°25' E 004°45'2 4.1
2017-Nov-18 12:00N 52°26' E 004°42'4 7.8
2017-Nov-18 11:30N 52°28' E 004°37'0 0.3
2017-Nov-18 11:00N 52°28' E 004°36'1 1.7
2017-Nov-18 10:30N 52°28' E 004°35'1 2.1
2017-Nov-18 10:00N 52°28' E 004°33'4 7.6
2017-Nov-18 09:30N 52°28' E 004°27'3 6.7
2017-Nov-18 09:01N 52°28' E 004°22'612.5
2017-Nov-18 08:30N 52°29' E 004°11'611.5
2017-Nov-18 07:57N 52°27' E 004°01'1 1.2
2017-Nov-18 07:25N 52°27' E 004°01'0 0.1
2017-Nov-18 06:46N 52°27' E 004°01'0 0.0
2017-Nov-18 06:28N 52°27' E 004°01'0 0.1
2017-Nov-18 05:16N 52°27' E 004°01'0 0.1
2017-Nov-18 04:58N 52°27' E 004°01'0 0.1
2017-Nov-18 04:16N 52°27' E 004°01'0 0.1
2017-Nov-18 03:16N 52°27' E 004°01'0 0.0
2017-Nov-18 02:34N 52°27' E 004°01'0 0.0
2017-Nov-18 02:28N 52°27' E 004°01'0 0.0
2017-Nov-18 01:49N 52°27' E 004°01'0 0.1
2017-Nov-18 01:19N 52°27' E 004°01'0 0.1
2017-Nov-18 00:55N 52°27' E 004°01'0 0.1
2017-Nov-18 00:28N 52°27' E 004°01'0 0.1
2017-Nov-17 23:49N 52°27' E 004°01'0 0.1
2017-Nov-17 23:19N 52°27' E 004°01'0 0.1
2017-Nov-17 22:43N 52°27' E 004°01'0 0.0
2017-Nov-17 22:04N 52°27' E 004°01'0 0.1
2017-Nov-17 21:49N 52°27' E 004°01'0 0.0
2017-Nov-17 21:28N 52°27' E 004°01'0 0.0
2017-Nov-17 20:43N 52°27' E 004°01'0 0.0
2017-Nov-17 20:25N 52°27' E 004°01'0 0.0
2017-Nov-17 19:55N 52°27' E 004°01'0 0.0
2017-Nov-17 19:28N 52°27' E 004°01'0 0.1
2017-Nov-17 18:58N 52°27' E 004°01'0 0.1
2017-Nov-17 18:28N 52°27' E 004°01'0 0.1
2017-Nov-17 17:55N 52°27' E 004°01'0 0.0
2017-Nov-17 17:28N 52°27' E 004°01'0 0.0
2017-Nov-17 12:10N 52°27' E 004°01'0 0.1
2017-Nov-17 11:55N 52°27' E 004°01'0 0.1
2017-Nov-17 11:19N 52°27' E 004°01'0 0.1
2017-Nov-17 10:43N 52°27' E 004°01'0 0.0
2017-Nov-17 10:28N 52°27' E 004°01'0 0.0
2017-Nov-17 09:55N 52°27' E 004°01'0 0.0
2017-Nov-17 09:28N 52°27' E 004°01'0 0.0
2017-Nov-17 08:58N 52°27' E 004°01'0 0.0
2017-Nov-17 08:19N 52°27' E 004°01'0 0.0
2017-Nov-17 07:49N 52°27' E 004°01'0 0.0
2017-Nov-17 06:37N 52°27' E 004°01'0 0.1
2017-Nov-17 06:19N 52°27' E 004°01'0 0.1
2017-Nov-17 05:49N 52°27' E 004°01'0 0.1
2017-Nov-17 05:25N 52°27' E 004°01'0 0.1
2017-Nov-17 03:19N 52°27' E 004°01'0 0.1
2017-Nov-17 02:40N 52°27' E 004°01'34510.1
2017-Nov-15 16:35N 57°26' E 008°58'111.2
2017-Nov-15 16:29N 57°27' E 008°60'611.2
2017-Nov-15 15:59N 57°31' E 009°08'511.5
2017-Nov-15 15:30N 57°34' E 009°16'4311.4
2017-Nov-15 11:44N 57°49' E 010°30'311.1
2017-Nov-15 11:28N 57°49' E 010°36'510.9
2017-Nov-15 11:00N 57°49' E 010°46'611.1
2017-Nov-15 10:29N 57°47' E 010°55'611.3
2017-Nov-15 09:57N 57°44' E 011°05'511.5
2017-Nov-15 09:30N 57°42' E 011°14'611.6
2017-Nov-15 09:00N 57°39' E 011°24'611.7
2017-Nov-15 08:30N 57°37' E 011°34'4 8.0
2017-Nov-15 08:01N 57°38' E 011°41'5 9.3
2017-Nov-15 07:30N 57°41' E 011°48'3 4.7
2017-Nov-15 06:58N 57°41' E 011°52'0 0.0
2017-Nov-15 06:28N 57°41' E 011°52'0 0.0
2017-Nov-15 05:58N 57°41' E 011°52'0 0.0
2017-Nov-15 05:25N 57°41' E 011°52'0 0.0
2017-Nov-15 04:58N 57°41' E 011°52'0 0.0
2017-Nov-15 04:28N 57°41' E 011°52'0 0.0
2017-Nov-15 03:58N 57°41' E 011°52'0 0.0
2017-Nov-15 03:28N 57°41' E 011°52'0 0.0
2017-Nov-15 02:58N 57°41' E 011°52'0 0.0
2017-Nov-15 02:28N 57°41' E 011°52'0 0.0
2017-Nov-15 01:55N 57°41' E 011°52'0 0.0
2017-Nov-15 01:28N 57°41' E 011°52'0 0.0
2017-Nov-15 00:58N 57°41' E 011°52'0 0.0
2017-Nov-15 00:28N 57°41' E 011°52'0 0.0
2017-Nov-14 23:55N 57°41' E 011°52'0 0.0
2017-Nov-14 23:28N 57°41' E 011°52'0 0.0
2017-Nov-14 22:58N 57°41' E 011°52'0 0.0
2017-Nov-14 22:28N 57°41' E 011°52'0 0.0
2017-Nov-14 21:58N 57°41' E 011°52'0 0.0
2017-Nov-14 21:28N 57°41' E 011°52'0 0.0
2017-Nov-14 20:58N 57°41' E 011°52'0 0.0
2017-Nov-14 20:28N 57°41' E 011°52'0 0.0
2017-Nov-14 19:55N 57°41' E 011°52'0 0.0
2017-Nov-14 19:25N 57°41' E 011°52'0 0.0
2017-Nov-14 18:55N 57°41' E 011°52'0 0.0
2017-Nov-14 18:28N 57°41' E 011°52'0 0.0
2017-Nov-14 17:55N 57°41' E 011°52'0 0.0
2017-Nov-14 17:28N 57°41' E 011°52'0 0.0
2017-Nov-14 16:55N 57°41' E 011°52'0 0.0
2017-Nov-14 16:28N 57°41' E 011°52'0 0.0
2017-Nov-14 15:49N 57°41' E 011°52'0 0.0
2017-Nov-14 15:28N 57°41' E 011°52'0 0.0
2017-Nov-14 14:55N 57°41' E 011°52'0 0.0
2017-Nov-14 14:28N 57°41' E 011°52'0 0.0
2017-Nov-14 13:55N 57°41' E 011°52'0 0.0
2017-Nov-14 13:25N 57°41' E 011°52'0 0.0
2017-Nov-14 12:58N 57°41' E 011°52'0 0.0
2017-Nov-14 12:25N 57°41' E 011°52'0 0.0
2017-Nov-14 11:55N 57°41' E 011°52'0 0.0
2017-Nov-14 11:28N 57°41' E 011°52'0 0.0
2017-Nov-14 10:55N 57°41' E 011°52'0 0.0
2017-Nov-14 10:28N 57°41' E 011°52'0 0.0
2017-Nov-14 09:58N 57°41' E 011°52'0 0.0
2017-Nov-14 09:28N 57°41' E 011°52'0 0.0
2017-Nov-14 08:58N 57°41' E 011°52'0 0.0
2017-Nov-14 08:25N 57°41' E 011°52'0 0.0
2017-Nov-14 07:58N 57°41' E 011°52'0 0.0
2017-Nov-14 07:28N 57°41' E 011°52'0 0.0
2017-Nov-14 06:58N 57°41' E 011°52'0 0.0
2017-Nov-14 06:25N 57°41' E 011°52'0 0.0
2017-Nov-14 05:58N 57°41' E 011°52'0 0.0
2017-Nov-14 05:25N 57°41' E 011°52'0 0.0
2017-Nov-14 04:58N 57°41' E 011°52'0 0.0
2017-Nov-14 04:28N 57°41' E 011°52'0 0.0
2017-Nov-14 03:58N 57°41' E 011°52'0 0.0
2017-Nov-14 03:28N 57°41' E 011°52'0 0.0
2017-Nov-14 02:58N 57°41' E 011°52'0 0.0
2017-Nov-14 02:28N 57°41' E 011°52'0 0.0
2017-Nov-14 01:58N 57°41' E 011°52'0 0.0
2017-Nov-14 01:25N 57°41' E 011°52'0 0.0
2017-Nov-14 00:58N 57°41' E 011°52'0 0.0
2017-Nov-14 00:28N 57°41' E 011°52'0 0.0
2017-Nov-13 23:58N 57°41' E 011°52'0 0.0
2017-Nov-13 23:28N 57°41' E 011°52'0 0.0
2017-Nov-13 22:58N 57°41' E 011°52'0 0.0
2017-Nov-13 22:25N 57°41' E 011°52'0 0.0
2017-Nov-13 21:58N 57°41' E 011°52'10 0.5
2017-Nov-13 02:00N 57°34' E 011°41'0 0.0
2017-Nov-13 01:30N 57°34' E 011°41'0 0.0
2017-Nov-13 01:00N 57°34' E 011°41'0 0.0
2017-Nov-13 00:30N 57°34' E 011°41'0 0.0
2017-Nov-13 00:00N 57°34' E 011°41'0 0.0
2017-Nov-12 23:30N 57°34' E 011°41'0 0.0
2017-Nov-12 23:00N 57°34' E 011°41'0 0.0
2017-Nov-12 22:27N 57°34' E 011°41'0 0.0
2017-Nov-12 22:00N 57°34' E 011°41'0 0.0
2017-Nov-12 21:30N 57°34' E 011°41'0 0.1
2017-Nov-12 21:00N 57°34' E 011°41'0 0.0
2017-Nov-12 20:24N 57°34' E 011°41'0 0.0
2017-Nov-12 20:00N 57°34' E 011°41'0 0.0
2017-Nov-12 19:30N 57°34' E 011°41'0 0.1
2017-Nov-12 19:00N 57°34' E 011°41'0 0.0
2017-Nov-12 18:30N 57°34' E 011°41'0 0.1
2017-Nov-12 18:00N 57°34' E 011°41'0 0.0
2017-Nov-12 17:30N 57°34' E 011°41'0 0.1
2017-Nov-12 17:00N 57°34' E 011°41'0 0.0
2017-Nov-12 16:30N 57°34' E 011°41'0 0.0
2017-Nov-12 16:00N 57°34' E 011°41'0 0.0
2017-Nov-12 15:30N 57°34' E 011°41'0 0.0
2017-Nov-12 15:00N 57°34' E 011°41'0 0.0
2017-Nov-12 14:30N 57°34' E 011°41'0 0.1
2017-Nov-12 14:00N 57°34' E 011°41'3 5.9
2017-Nov-12 13:30N 57°36' E 011°37'4 8.1
2017-Nov-12 13:00N 57°38' E 011°30'815.2
2017-Nov-12 12:30N 57°40' E 011°17'714.9
2017-Nov-12 12:00N 57°43' E 011°04'714.8
2017-Nov-12 11:30N 57°46' E 010°51'22212.0
2017-Nov-11 17:00N 55°16' E 005°55'711.2
2017-Nov-11 16:24N 55°10' E 005°52'410.7
2017-Nov-11 15:59N 55°05' E 005°50'157 9.3
2017-Nov-10 23:12N 52°39' E 004°15'2 8.0
2017-Nov-10 23:00N 52°38' E 004°17'4 8.0
2017-Nov-10 22:29N 52°35' E 004°21'4 8.7
2017-Nov-10 22:00N 52°31' E 004°24'5 9.0
2017-Nov-10 21:30N 52°29' E 004°30'4 7.7
2017-Nov-10 21:00N 52°28' E 004°37'0 0.3
2017-Nov-10 20:30N 52°28' E 004°37'3 5.6
2017-Nov-10 20:00N 52°27' E 004°41'4 8.0
2017-Nov-10 19:30N 52°25' E 004°47'1 1.3
2017-Nov-10 18:56N 52°24' E 004°47'0 0.0
2017-Nov-10 18:17N 52°24' E 004°47'0 0.0
2017-Nov-10 17:56N 52°24' E 004°47'0 0.0
2017-Nov-10 17:02N 52°24' E 004°47'0 0.0
2017-Nov-10 16:32N 52°24' E 004°47'0 0.0
2017-Nov-10 14:44N 52°24' E 004°47'0 0.0
2017-Nov-10 14:20N 52°24' E 004°47'0 0.0
2017-Nov-10 04:50N 52°24' E 004°47'0 0.0
2017-Nov-10 04:17N 52°24' E 004°47'0 0.0
2017-Nov-10 03:56N 52°24' E 004°47'0 0.0
2017-Nov-10 03:14N 52°24' E 004°47'0 0.0
2017-Nov-10 02:56N 52°24' E 004°47'0 0.2
2017-Nov-10 02:30N 52°24' E 004°47'1 2.9
2017-Nov-10 02:00N 52°26' E 004°47'3 5.0
2017-Nov-10 01:30N 52°25' E 004°50'0 0.0
2017-Nov-09 23:49N 52°25' E 004°50'0 0.0
2017-Nov-09 23:10N 52°25' E 004°50'0 0.0
2017-Nov-09 22:52N 52°25' E 004°50'0 0.0
2017-Nov-09 21:10N 52°25' E 004°50'  

Dump ship's entire track history